sensor_id;sensor_type;location;lat;lon;timestamp;pressure;altitude;pressure_sealevel;temperature;humidity
11415;BME280;5763;42.714;23.244;2023-06-19T00:00:54;94677.69;;;19.66;74.47
11415;BME280;5763;42.714;23.244;2023-06-19T00:03:21;94682.25;;;19.75;74.50
11415;BME280;5763;42.714;23.244;2023-06-19T00:05:47;94680.72;;;19.74;74.45
11415;BME280;5763;42.714;23.244;2023-06-19T00:08:16;94677.69;;;19.72;73.85
11415;BME280;5763;42.714;23.244;2023-06-19T00:10:42;94682.75;;;19.68;73.44
11415;BME280;5763;42.714;23.244;2023-06-19T00:13:09;94674.41;;;19.68;73.16
11415;BME280;5763;42.714;23.244;2023-06-19T00:15:36;94670.38;;;19.69;73.10
11415;BME280;5763;42.714;23.244;2023-06-19T00:18:03;94668.59;;;19.71;72.72
11415;BME280;5763;42.714;23.244;2023-06-19T00:20:29;94680.47;;;19.77;73.30
11415;BME280;5763;42.714;23.244;2023-06-19T00:22:56;94665.31;;;19.73;73.32
11415;BME280;5763;42.714;23.244;2023-06-19T00:25:24;94664.31;;;19.70;72.60
11415;BME280;5763;42.714;23.244;2023-06-19T00:27:51;94656.75;;;19.71;72.19
11415;BME280;5763;42.714;23.244;2023-06-19T00:30:17;94665.31;;;19.73;72.41
11415;BME280;5763;42.714;23.244;2023-06-19T00:32:44;94660.75;;;19.81;72.13
11415;BME280;5763;42.714;23.244;2023-06-19T00:35:16;94661.28;;;19.74;72.44
11415;BME280;5763;42.714;23.244;2023-06-19T00:37:44;94656.75;;;19.71;72.61
11415;BME280;5763;42.714;23.244;2023-06-19T00:40:16;94666.81;;;19.79;72.40
11415;BME280;5763;42.714;23.244;2023-06-19T00:42:47;94658.25;;;19.72;72.84
11415;BME280;5763;42.714;23.244;2023-06-19T00:45:14;94655.25;;;19.70;72.61
11415;BME280;5763;42.714;23.244;2023-06-19T00:47:41;94654.72;;;19.71;72.41
11415;BME280;5763;42.714;23.244;2023-06-19T00:50:08;94648.44;;;19.65;72.88
11415;BME280;5763;42.714;23.244;2023-06-19T00:52:35;94645.19;;;19.56;72.96
11415;BME280;5763;42.714;23.244;2023-06-19T00:55:04;94647.97;;;19.61;73.06
11415;BME280;5763;42.714;23.244;2023-06-19T00:57:31;94636.09;;;19.61;73.26
11415;BME280;5763;42.714;23.244;2023-06-19T00:59:59;94604.63;;;19.36;73.25
11415;BME280;5763;42.714;23.244;2023-06-19T01:02:26;94632.28;;;19.64;73.84
11415;BME280;5763;42.714;23.244;2023-06-19T01:04:53;94631.53;;;19.58;73.35
11415;BME280;5763;42.714;23.244;2023-06-19T01:07:24;94628.03;;;19.52;73.90
11415;BME280;5763;42.714;23.244;2023-06-19T01:09:55;94634.09;;;19.50;74.03
11415;BME280;5763;42.714;23.244;2023-06-19T01:12:33;94624.00;;;19.47;74.07
11415;BME280;5763;42.714;23.244;2023-06-19T01:15:04;94630.31;;;19.48;73.72
11415;BME280;5763;42.714;23.244;2023-06-19T01:17:32;94629.31;;;19.45;73.22
11415;BME280;5763;42.714;23.244;2023-06-19T01:19:59;94625.28;;;19.41;73.23
11415;BME280;5763;42.714;23.244;2023-06-19T01:22:32;94623.78;;;19.34;73.49
11415;BME280;5763;42.714;23.244;2023-06-19T01:24:59;94625.31;;;19.30;73.24
11415;BME280;5763;42.714;23.244;2023-06-19T01:27:26;94622.28;;;19.28;72.93
11415;BME280;5763;42.714;23.244;2023-06-19T01:29:57;94625.31;;;19.30;73.07
11415;BME280;5763;42.714;23.244;2023-06-19T01:32:29;94623.81;;;19.23;73.45
11415;BME280;5763;42.714;23.244;2023-06-19T01:34:59;94629.34;;;19.23;73.07
11415;BME280;5763;42.714;23.244;2023-06-19T01:37:28;94628.84;;;19.25;73.29
11415;BME280;5763;42.714;23.244;2023-06-19T01:40:02;94625.81;;;19.23;72.57
11415;BME280;5763;42.714;23.244;2023-06-19T01:42:31;94637.91;;;19.20;72.77
11415;BME280;5763;42.714;23.244;2023-06-19T01:44:59;94633.63;;;19.19;72.64
11415;BME280;5763;42.714;23.244;2023-06-19T01:47:28;94640.44;;;19.18;73.34
11415;BME280;5763;42.714;23.244;2023-06-19T01:49:55;94642.97;;;19.21;73.17
11415;BME280;5763;42.714;23.244;2023-06-19T01:52:22;94648.78;;;19.23;73.63
11415;BME280;5763;42.714;23.244;2023-06-19T01:54:50;94644.72;;;19.24;72.87
11415;BME280;5763;42.714;23.244;2023-06-19T01:57:18;94645.50;;;19.25;73.85
11415;BME280;5763;42.714;23.244;2023-06-19T01:59:45;94657.59;;;19.27;75.03
11415;BME280;5763;42.714;23.244;2023-06-19T02:02:11;94655.84;;;19.30;75.51
11415;BME280;5763;42.714;23.244;2023-06-19T02:04:38;94648.28;;;19.25;75.48
11415;BME280;5763;42.714;23.244;2023-06-19T02:07:05;94611.97;;;18.95;76.09
11415;BME280;5763;42.714;23.244;2023-06-19T02:09:32;94656.59;;;19.25;77.27
11415;BME280;5763;42.714;23.244;2023-06-19T02:11:59;94644.97;;;19.21;78.62
11415;BME280;5763;42.714;23.244;2023-06-19T02:14:27;94654.31;;;19.23;79.44
11415;BME280;5763;42.714;23.244;2023-06-19T02:16:54;94656.31;;;19.17;79.76
11415;BME280;5763;42.714;23.244;2023-06-19T02:19:21;94650.78;;;19.17;75.79
11415;BME280;5763;42.714;23.244;2023-06-19T02:21:47;94661.88;;;19.17;74.58
11415;BME280;5763;42.714;23.244;2023-06-19T02:24:14;94667.44;;;19.17;75.30
11415;BME280;5763;42.714;23.244;2023-06-19T02:26:41;94653.81;;;19.08;76.97
11415;BME280;5763;42.714;23.244;2023-06-19T02:29:09;94655.06;;;19.07;76.25
11415;BME280;5763;42.714;23.244;2023-06-19T02:31:37;94658.34;;;19.06;75.87
11415;BME280;5763;42.714;23.244;2023-06-19T02:34:04;94665.91;;;19.00;77.05
11415;BME280;5763;42.714;23.244;2023-06-19T02:36:30;94670.22;;;18.95;77.03
11415;BME280;5763;42.714;23.244;2023-06-19T02:38:57;94666.94;;;18.91;77.20
11415;BME280;5763;42.714;23.244;2023-06-19T02:41:25;94663.66;;;18.93;77.38
11415;BME280;5763;42.714;23.244;2023-06-19T02:43:52;94669.69;;;18.86;78.81
11415;BME280;5763;42.714;23.244;2023-06-19T02:46:18;94666.41;;;18.76;79.83
11415;BME280;5763;42.714;23.244;2023-06-19T02:48:47;94674.97;;;18.78;80.24
11415;BME280;5763;42.714;23.244;2023-06-19T02:51:13;94669.69;;;18.75;79.75
11415;BME280;5763;42.714;23.244;2023-06-19T02:53:40;94666.66;;;18.78;79.76
11415;BME280;5763;42.714;23.244;2023-06-19T02:56:07;94668.19;;;18.74;80.08
11415;BME280;5763;42.714;23.244;2023-06-19T02:58:33;94673.22;;;18.70;78.64
11415;BME280;5763;42.714;23.244;2023-06-19T03:01:03;94664.63;;;18.73;76.59
11415;BME280;5763;42.714;23.244;2023-06-19T03:03:32;94683.06;;;18.76;76.10
11415;BME280;5763;42.714;23.244;2023-06-19T03:06:04;94683.03;;;18.71;75.97
11415;BME280;5763;42.714;23.244;2023-06-19T03:08:32;94672.22;;;18.73;75.39
11415;BME280;5763;42.714;23.244;2023-06-19T03:10:59;94680.28;;;18.76;75.40
11415;BME280;5763;42.714;23.244;2023-06-19T03:13:26;94674.50;;;18.74;75.18
11415;BME280;5763;42.714;23.244;2023-06-19T03:15:53;94655.59;;;18.73;74.12
11415;BME280;5763;42.714;23.244;2023-06-19T03:18:20;94676.00;;;18.75;73.93
11415;BME280;5763;42.714;23.244;2023-06-19T03:20:47;94673.50;;;18.72;74.00
11415;BME280;5763;42.714;23.244;2023-06-19T03:23:15;94667.41;;;18.73;74.05
11415;BME280;5763;42.714;23.244;2023-06-19T03:25:41;94670.72;;;18.72;74.64
11415;BME280;5763;42.714;23.244;2023-06-19T03:28:08;94676.47;;;18.68;75.03
11415;BME280;5763;42.714;23.244;2023-06-19T03:30:35;94675.72;;;18.57;76.05
11415;BME280;5763;42.714;23.244;2023-06-19T03:33:02;94669.66;;;18.53;75.67
11415;BME280;5763;42.714;23.244;2023-06-19T03:35:28;94666.88;;;18.42;75.70
11415;BME280;5763;42.714;23.244;2023-06-19T03:37:55;94671.16;;;18.43;75.67
11415;BME280;5763;42.714;23.244;2023-06-19T03:40:23;94675.44;;;18.44;75.56
11415;BME280;5763;42.714;23.244;2023-06-19T03:42:50;94674.94;;;18.45;75.58
11415;BME280;5763;42.714;23.244;2023-06-19T03:45:17;94674.69;;;18.49;75.98
11415;BME280;5763;42.714;23.244;2023-06-19T03:47:43;94666.34;;;18.43;75.75
11415;BME280;5763;42.714;23.244;2023-06-19T03:50:10;94664.34;;;18.44;76.10
11415;BME280;5763;42.714;23.244;2023-06-19T03:52:37;94675.69;;;18.46;75.98
11415;BME280;5763;42.714;23.244;2023-06-19T03:55:08;94664.34;;;18.44;75.58
11415;BME280;5763;42.714;23.244;2023-06-19T03:57:36;94682.28;;;18.54;75.21
11415;BME280;5763;42.714;23.244;2023-06-19T04:00:03;94676.97;;;18.56;75.51
11415;BME280;5763;42.714;23.244;2023-06-19T04:02:33;94680.50;;;18.56;75.11
11415;BME280;5763;42.714;23.244;2023-06-19T04:04:59;94674.47;;;18.63;74.84
11415;BME280;5763;42.714;23.244;2023-06-19T04:07:26;94664.13;;;18.64;74.69
11415;BME280;5763;42.714;23.244;2023-06-19T04:09:53;94672.47;;;18.64;74.00
11415;BME280;5763;42.714;23.244;2023-06-19T04:12:20;94674.25;;;18.67;74.30
11415;BME280;5763;42.714;23.244;2023-06-19T04:14:48;94677.50;;;18.71;74.60
11415;BME280;5763;42.714;23.244;2023-06-19T04:17:15;94672.22;;;18.78;73.92
11415;BME280;5763;42.714;23.244;2023-06-19T04:19:42;94682.31;;;18.81;73.97
11415;BME280;5763;42.714;23.244;2023-06-19T04:22:09;94678.50;;;18.84;74.37
11415;BME280;5763;42.714;23.244;2023-06-19T04:24:36;94673.22;;;18.92;73.68
11415;BME280;5763;42.714;23.244;2023-06-19T04:27:03;94670.72;;;18.94;74.00
11415;BME280;5763;42.714;23.244;2023-06-19T04:29:29;94670.47;;;18.97;73.11
11415;BME280;5763;42.714;23.244;2023-06-19T04:31:59;94665.16;;;18.94;73.54
11415;BME280;5763;42.714;23.244;2023-06-19T04:34:25;94659.38;;;18.97;72.20
11415;BME280;5763;42.714;23.244;2023-06-19T04:36:52;94671.97;;;18.98;70.95
11415;BME280;5763;42.714;23.244;2023-06-19T04:39:19;94661.13;;;18.89;71.29
11415;BME280;5763;42.714;23.244;2023-06-19T04:41:46;94669.94;;;18.93;71.75
11415;BME280;5763;42.714;23.244;2023-06-19T04:44:13;94659.09;;;19.01;71.99
11415;BME280;5763;42.714;23.244;2023-06-19T04:46:40;94671.47;;;19.05;72.32
11415;BME280;5763;42.714;23.244;2023-06-19T04:49:08;94666.41;;;19.09;71.77
11415;BME280;5763;42.714;23.244;2023-06-19T04:51:35;94671.19;;;19.14;71.17
11415;BME280;5763;42.714;23.244;2023-06-19T04:54:02;94660.63;;;19.07;70.94
11415;BME280;5763;42.714;23.244;2023-06-19T04:56:29;94672.50;;;19.08;70.55
11415;BME280;5763;42.714;23.244;2023-06-19T04:58:56;94675.25;;;19.02;70.65
11415;BME280;5763;42.714;23.244;2023-06-19T05:01:25;94664.16;;;19.08;71.16
11415;BME280;5763;42.714;23.244;2023-06-19T05:03:54;94664.63;;;19.12;71.50
11415;BME280;5763;42.714;23.244;2023-06-19T05:06:22;94675.75;;;19.12;71.88
11415;BME280;5763;42.714;23.244;2023-06-19T05:08:49;94662.63;;;19.07;72.23
11415;BME280;5763;42.714;23.244;2023-06-19T05:11:16;94674.75;;;19.15;72.56
11415;BME280;5763;42.714;23.244;2023-06-19T05:13:43;94668.19;;;19.18;72.54
11415;BME280;5763;42.714;23.244;2023-06-19T05:16:10;94674.00;;;19.25;72.99
11415;BME280;5763;42.714;23.244;2023-06-19T05:18:37;94674.75;;;19.26;73.14
11415;BME280;5763;42.714;23.244;2023-06-19T05:21:03;94668.94;;;19.29;74.25
11415;BME280;5763;42.714;23.244;2023-06-19T05:23:32;94674.50;;;19.29;75.26
11415;BME280;5763;42.714;23.244;2023-06-19T05:25:58;94670.22;;;19.28;76.65
11415;BME280;5763;42.714;23.244;2023-06-19T05:28:25;94670.72;;;19.27;76.27
11415;BME280;5763;42.714;23.244;2023-06-19T05:30:52;94677.28;;;19.29;76.50
11415;BME280;5763;42.714;23.244;2023-06-19T05:33:18;94676.78;;;19.31;77.27
11415;BME280;5763;42.714;23.244;2023-06-19T05:35:45;94686.84;;;19.39;77.63
11415;BME280;5763;42.714;23.244;2023-06-19T05:38:17;94686.88;;;19.34;75.92
11415;BME280;5763;42.714;23.244;2023-06-19T05:40:46;94696.94;;;19.37;76.44
11415;BME280;5763;42.714;23.244;2023-06-19T05:43:13;94701.50;;;19.40;76.45
11415;BME280;5763;42.714;23.244;2023-06-19T05:45:39;94689.34;;;19.43;76.69
11415;BME280;5763;42.714;23.244;2023-06-19T05:48:06;94689.88;;;19.41;77.50
11415;BME280;5763;42.714;23.244;2023-06-19T05:50:33;94699.19;;;19.49;76.68
11415;BME280;5763;42.714;23.244;2023-06-19T05:53:00;94695.19;;;19.45;76.02
11415;BME280;5763;42.714;23.244;2023-06-19T05:55:29;94700.19;;;19.52;74.95
11415;BME280;5763;42.714;23.244;2023-06-19T05:57:59;94692.88;;;19.54;75.27
11415;BME280;5763;42.714;23.244;2023-06-19T06:00:26;94702.97;;;19.52;74.35
11415;BME280;5763;42.714;23.244;2023-06-19T06:02:53;94703.97;;;19.54;73.99
11415;BME280;5763;42.714;23.244;2023-06-19T06:05:20;94700.19;;;19.63;74.71
11415;BME280;5763;42.714;23.244;2023-06-19T06:07:47;94710.53;;;19.57;73.20
11415;BME280;5763;42.714;23.244;2023-06-19T06:10:13;94697.94;;;19.61;73.24
11415;BME280;5763;42.714;23.244;2023-06-19T06:12:42;94706.19;;;19.78;73.72
11415;BME280;5763;42.714;23.244;2023-06-19T06:15:10;94714.31;;;19.70;73.16
11415;BME280;5763;42.714;23.244;2023-06-19T06:17:37;94705.44;;;19.83;73.73
11415;BME280;5763;42.714;23.244;2023-06-19T06:20:05;94719.31;;;19.88;74.46
11415;BME280;5763;42.714;23.244;2023-06-19T06:22:38;94712.50;;;19.89;71.64
11415;BME280;5763;42.714;23.244;2023-06-19T06:25:06;94716.78;;;19.96;73.23
11415;BME280;5763;42.714;23.244;2023-06-19T06:27:33;94708.16;;;19.99;73.34
11415;BME280;5763;42.714;23.244;2023-06-19T06:30:00;94714.22;;;20.03;71.40
11415;BME280;5763;42.714;23.244;2023-06-19T06:32:28;94714.47;;;20.11;71.56
11415;BME280;5763;42.714;23.244;2023-06-19T06:34:56;94717.94;;;20.22;73.01
11415;BME280;5763;42.714;23.244;2023-06-19T06:37:24;94725.50;;;20.33;73.38
11415;BME280;5763;42.714;23.244;2023-06-19T06:39:51;94720.44;;;20.31;71.12
11415;BME280;5763;42.714;23.244;2023-06-19T06:42:18;94730.06;;;20.30;70.13
11415;BME280;5763;42.714;23.244;2023-06-19T06:44:45;94740.63;;;20.43;70.00
11415;BME280;5763;42.714;23.244;2023-06-19T06:47:12;94722.94;;;20.46;68.70
11415;BME280;5763;42.714;23.244;2023-06-19T06:49:40;94718.31;;;20.54;68.88
11415;BME280;5763;42.714;23.244;2023-06-19T06:52:07;94720.88;;;20.52;69.71
11415;BME280;5763;42.714;23.244;2023-06-19T06:54:34;94722.75;;;20.73;70.78
11415;BME280;5763;42.714;23.244;2023-06-19T06:57:01;94725.56;;;20.68;71.18
11415;BME280;5763;42.714;23.244;2023-06-19T06:59:30;94724.22;;;20.80;72.00
11415;BME280;5763;42.714;23.244;2023-06-19T07:01:57;94712.88;;;20.78;72.38
11415;BME280;5763;42.714;23.244;2023-06-19T07:04:24;94721.72;;;20.82;73.66
11415;BME280;5763;42.714;23.244;2023-06-19T07:06:52;94712.38;;;20.79;68.97
11415;BME280;5763;42.714;23.244;2023-06-19T07:09:19;94718.63;;;20.91;66.62
11415;BME280;5763;42.714;23.244;2023-06-19T07:11:46;94718.31;;;21.00;67.72
11415;BME280;5763;42.714;23.244;2023-06-19T07:14:13;94717.03;;;21.01;67.96
11415;BME280;5763;42.714;23.244;2023-06-19T07:16:43;94724.78;;;21.13;68.66
11415;BME280;5763;42.714;23.244;2023-06-19T07:19:10;94719.78;;;21.06;66.84
11415;BME280;5763;42.714;23.244;2023-06-19T07:21:37;94722.78;;;21.14;67.15
11415;BME280;5763;42.714;23.244;2023-06-19T07:24:05;94724.97;;;21.21;65.01
11415;BME280;5763;42.714;23.244;2023-06-19T07:26:32;94731.50;;;21.29;66.47
11415;BME280;5763;42.714;23.244;2023-06-19T07:28:59;94727.94;;;21.34;65.29
11415;BME280;5763;42.714;23.244;2023-06-19T07:31:26;94734.91;;;21.46;66.43
11415;BME280;5763;42.714;23.244;2023-06-19T07:33:52;94734.59;;;21.55;67.04
11415;BME280;5763;42.714;23.244;2023-06-19T07:36:19;94727.63;;;21.67;67.71
11415;BME280;5763;42.714;23.244;2023-06-19T07:38:46;94735.72;;;21.70;65.48
11415;BME280;5763;42.714;23.244;2023-06-19T07:41:14;94738.47;;;21.76;64.33
11415;BME280;5763;42.714;23.244;2023-06-19T07:43:41;94728.31;;;21.78;66.43
11415;BME280;5763;42.714;23.244;2023-06-19T07:46:07;94732.09;;;21.81;64.28
11415;BME280;5763;42.714;23.244;2023-06-19T07:48:34;94735.78;;;21.89;65.57
11415;BME280;5763;42.714;23.244;2023-06-19T07:51:01;94727.34;;;22.00;65.55
11415;BME280;5763;42.714;23.244;2023-06-19T07:53:27;94734.13;;;22.04;64.94
11415;BME280;5763;42.714;23.244;2023-06-19T07:55:54;94731.03;;;22.08;60.60
11415;BME280;5763;42.714;23.244;2023-06-19T07:58:22;94733.16;;;22.20;60.38
11415;BME280;5763;42.714;23.244;2023-06-19T08:00:49;94725.97;;;22.30;61.23
11415;BME280;5763;42.714;23.244;2023-06-19T08:03:16;94724.91;;;22.33;61.71
11415;BME280;5763;42.714;23.244;2023-06-19T08:05:42;94728.38;;;22.39;58.79
11415;BME280;5763;42.714;23.244;2023-06-19T08:08:11;94736.44;;;22.48;58.12
11415;BME280;5763;42.714;23.244;2023-06-19T08:10:38;94731.75;;;22.56;54.45
11415;BME280;5763;42.714;23.244;2023-06-19T08:13:06;94729.31;;;22.66;54.46
11415;BME280;5763;42.714;23.244;2023-06-19T08:15:34;94735.59;;;22.53;54.84
11415;BME280;5763;42.714;23.244;2023-06-19T08:18:01;94720.13;;;22.52;54.86
11415;BME280;5763;42.714;23.244;2023-06-19T08:20:28;94692.88;;;22.40;51.94
11415;BME280;5763;42.714;23.244;2023-06-19T08:22:54;94727.38;;;22.61;54.68
11415;BME280;5763;42.714;23.244;2023-06-19T08:25:22;94730.75;;;22.72;56.27
11415;BME280;5763;42.714;23.244;2023-06-19T08:27:48;94725.63;;;22.76;55.55
11415;BME280;5763;42.714;23.244;2023-06-19T08:30:16;94724.03;;;22.81;53.88
11415;BME280;5763;42.714;23.244;2023-06-19T08:32:46;94733.84;;;22.87;55.19
11415;BME280;5763;42.714;23.244;2023-06-19T08:35:13;94727.28;;;22.85;56.78
11415;BME280;5763;42.714;23.244;2023-06-19T08:37:41;94735.91;;;22.87;55.50
11415;BME280;5763;42.714;23.244;2023-06-19T08:40:08;94729.88;;;22.83;52.32
11415;BME280;5763;42.714;23.244;2023-06-19T08:42:35;94723.97;;;22.86;51.55
11415;BME280;5763;42.714;23.244;2023-06-19T08:45:02;94723.22;;;22.86;50.48
11415;BME280;5763;42.714;23.244;2023-06-19T08:47:30;94722.16;;;23.07;51.65
11415;BME280;5763;42.714;23.244;2023-06-19T08:49:59;94722.78;;;23.19;52.67
11415;BME280;5763;42.714;23.244;2023-06-19T08:52:26;94711.50;;;23.24;49.89
11415;BME280;5763;42.714;23.244;2023-06-19T08:54:53;94710.19;;;23.44;51.03
11415;BME280;5763;42.714;23.244;2023-06-19T08:57:19;94715.09;;;23.38;49.81
11415;BME280;5763;42.714;23.244;2023-06-19T08:59:50;94718.59;;;23.57;48.42
11415;BME280;5763;42.714;23.244;2023-06-19T09:02:17;94719.78;;;23.61;48.92
11415;BME280;5763;42.714;23.244;2023-06-19T09:04:44;94721.63;;;23.72;49.86
11415;BME280;5763;42.714;23.244;2023-06-19T09:07:13;94722.41;;;23.85;49.77
11415;BME280;5763;42.714;23.244;2023-06-19T09:09:44;94715.03;;;24.01;49.64
11415;BME280;5763;42.714;23.244;2023-06-19T09:12:12;94715.34;;;23.97;45.68
11415;BME280;5763;42.714;23.244;2023-06-19T09:14:41;94717.94;;;24.08;47.68
11415;BME280;5763;42.714;23.244;2023-06-19T09:17:11;94716.00;;;24.16;48.78
11415;BME280;5763;42.714;23.244;2023-06-19T09:19:47;94721.59;;;24.29;51.59
11415;BME280;5763;42.714;23.244;2023-06-19T09:22:17;94717.19;;;24.47;53.40
11415;BME280;5763;42.714;23.244;2023-06-19T09:24:45;94730.16;;;24.57;49.47
11415;BME280;5763;42.714;23.244;2023-06-19T09:27:13;94721.69;;;24.63;51.19
11415;BME280;5763;42.714;23.244;2023-06-19T09:29:45;94709.84;;;24.70;51.25
11415;BME280;5763;42.714;23.244;2023-06-19T09:32:17;94714.56;;;24.75;51.49
11415;BME280;5763;42.714;23.244;2023-06-19T09:34:44;94707.66;;;24.76;50.45
11415;BME280;5763;42.714;23.244;2023-06-19T09:37:11;94710.88;;;24.80;51.02
11415;BME280;5763;42.714;23.244;2023-06-19T09:39:41;94715.59;;;24.98;50.84
11415;BME280;5763;42.714;23.244;2023-06-19T09:42:08;94718.91;;;25.09;50.74
11415;BME280;5763;42.714;23.244;2023-06-19T09:44:39;94722.72;;;25.19;49.57
11415;BME280;5763;42.714;23.244;2023-06-19T09:47:14;94710.78;;;25.19;43.89
11415;BME280;5763;42.714;23.244;2023-06-19T09:49:48;94713.75;;;25.34;48.21
11415;BME280;5763;42.714;23.244;2023-06-19T09:52:15;94710.06;;;25.39;45.90
11415;BME280;5763;42.714;23.244;2023-06-19T09:54:44;94707.69;;;25.43;46.40
11415;BME280;5763;42.714;23.244;2023-06-19T09:57:11;94702.88;;;25.51;47.86
11415;BME280;5763;42.714;23.244;2023-06-19T09:59:39;94699.53;;;25.52;46.72
11415;BME280;5763;42.714;23.244;2023-06-19T10:02:07;94704.25;;;25.57;45.41
11415;BME280;5763;42.714;23.244;2023-06-19T10:04:42;94696.81;;;25.60;46.69
11415;BME280;5763;42.714;23.244;2023-06-19T10:07:18;94693.31;;;25.67;45.32
11415;BME280;5763;42.714;23.244;2023-06-19T10:10:03;94697.72;;;25.83;46.41
11415;BME280;5763;42.714;23.244;2023-06-19T10:12:35;94697.28;;;25.92;45.14
11415;BME280;5763;42.714;23.244;2023-06-19T10:15:10;94703.00;;;26.07;41.47
11415;BME280;5763;42.714;23.244;2023-06-19T10:17:37;94695.16;;;26.13;40.71
11415;BME280;5763;42.714;23.244;2023-06-19T10:20:05;94696.38;;;26.25;43.92
11415;BME280;5763;42.714;23.244;2023-06-19T10:22:39;94693.41;;;26.30;46.39
11415;BME280;5763;42.714;23.244;2023-06-19T10:25:21;94700.38;;;26.37;44.31
11415;BME280;5763;42.714;23.244;2023-06-19T10:27:48;94691.22;;;26.44;44.68
11415;BME280;5763;42.714;23.244;2023-06-19T10:30:18;94689.53;;;26.41;45.68
11415;BME280;5763;42.714;23.244;2023-06-19T10:32:45;94683.75;;;26.46;42.30
11415;BME280;5763;42.714;23.244;2023-06-19T10:35:12;94684.78;;;26.56;41.27
11415;BME280;5763;42.714;23.244;2023-06-19T10:37:39;94686.50;;;26.67;39.67
11415;BME280;5763;42.714;23.244;2023-06-19T10:40:07;94678.34;;;26.84;40.50
11415;BME280;5763;42.714;23.244;2023-06-19T10:42:36;94679.84;;;26.92;40.68
11415;BME280;5763;42.714;23.244;2023-06-19T10:45:05;94679.16;;;27.07;41.46
11415;BME280;5763;42.714;23.244;2023-06-19T10:47:33;94675.19;;;27.02;40.32
11415;BME280;5763;42.714;23.244;2023-06-19T10:49:59;94674.72;;;27.19;41.51
11415;BME280;5763;42.714;23.244;2023-06-19T10:52:28;94677.16;;;27.30;43.06
11415;BME280;5763;42.714;23.244;2023-06-19T10:54:55;94677.75;;;27.43;43.12
11415;BME280;5763;42.714;23.244;2023-06-19T10:57:32;94677.38;;;27.62;40.24
11415;BME280;5763;42.714;23.244;2023-06-19T11:00:00;94678.13;;;27.62;38.80
11415;BME280;5763;42.714;23.244;2023-06-19T11:02:31;94674.81;;;27.79;38.75
11415;BME280;5763;42.714;23.244;2023-06-19T11:04:58;94680.03;;;27.75;41.13
11415;BME280;5763;42.714;23.244;2023-06-19T11:07:25;94665.22;;;27.82;41.46
11415;BME280;5763;42.714;23.244;2023-06-19T11:09:52;94670.09;;;27.96;40.50
11415;BME280;5763;42.714;23.244;2023-06-19T11:12:19;94656.22;;;27.98;38.57
11415;BME280;5763;42.714;23.244;2023-06-19T11:14:47;94660.50;;;28.07;39.97
11415;BME280;5763;42.714;23.244;2023-06-19T11:17:16;94663.69;;;28.18;40.74
11415;BME280;5763;42.714;23.244;2023-06-19T11:19:46;94652.25;;;28.16;38.88
11415;BME280;5763;42.714;23.244;2023-06-19T11:22:13;94657.84;;;28.24;40.94
11415;BME280;5763;42.714;23.244;2023-06-19T11:24:43;94647.16;;;28.30;39.32
11415;BME280;5763;42.714;23.244;2023-06-19T11:27:17;94661.75;;;28.36;41.46
11415;BME280;5763;42.714;23.244;2023-06-19T11:29:44;94647.84;;;28.38;41.75
11415;BME280;5763;42.714;23.244;2023-06-19T11:32:13;94648.03;;;28.55;41.57
11415;BME280;5763;42.714;23.244;2023-06-19T11:34:41;94651.59;;;28.55;40.56
11415;BME280;5763;42.714;23.244;2023-06-19T11:37:13;94657.72;;;28.69;38.88
11415;BME280;5763;42.714;23.244;2023-06-19T11:39:40;94648.28;;;28.81;40.60
11415;BME280;5763;42.714;23.244;2023-06-19T11:42:07;94643.38;;;28.89;39.24
11415;BME280;5763;42.714;23.244;2023-06-19T11:44:34;94652.91;;;28.94;40.16
11415;BME280;5763;42.714;23.244;2023-06-19T11:47:01;94644.53;;;28.79;41.27
11415;BME280;5763;42.714;23.244;2023-06-19T11:49:34;94648.03;;;28.55;40.90
11415;BME280;5763;42.714;23.244;2023-06-19T11:52:03;94639.72;;;28.64;39.64
11415;BME280;5763;42.714;23.244;2023-06-19T11:54:30;94641.94;;;28.73;40.53
11415;BME280;5763;42.714;23.244;2023-06-19T11:56:56;94637.75;;;28.82;39.33
11415;BME280;5763;42.714;23.244;2023-06-19T11:59:23;94639.00;;;28.96;37.75
11415;BME280;5763;42.714;23.244;2023-06-19T12:01:50;94640.31;;;29.02;40.01
11415;BME280;5763;42.714;23.244;2023-06-19T12:04:17;94642.03;;;28.98;40.16
11415;BME280;5763;42.714;23.244;2023-06-19T12:06:43;94628.69;;;28.98;40.88
11415;BME280;5763;42.714;23.244;2023-06-19T12:09:12;94633.50;;;29.13;38.94
11415;BME280;5763;42.714;23.244;2023-06-19T12:11:39;94638.41;;;29.05;36.99
11415;BME280;5763;42.714;23.244;2023-06-19T12:14:06;94633.50;;;29.13;39.17
11415;BME280;5763;42.714;23.244;2023-06-19T12:16:32;94638.56;;;29.14;39.93
11415;BME280;5763;42.714;23.244;2023-06-19T12:18:59;94631.34;;;29.21;39.64
11415;BME280;5763;42.714;23.244;2023-06-19T12:21:26;94635.94;;;29.09;40.90
11415;BME280;5763;42.714;23.244;2023-06-19T12:23:53;94635.97;;;28.62;41.88
11415;BME280;5763;42.714;23.244;2023-06-19T12:26:21;94623.28;;;28.46;42.95
11415;BME280;5763;42.714;23.244;2023-06-19T12:28:50;94628.16;;;28.38;41.70
11415;BME280;5763;42.714;23.244;2023-06-19T12:31:17;94629.91;;;28.11;42.64
11415;BME280;5763;42.714;23.244;2023-06-19T12:33:44;94622.25;;;27.96;44.23
11415;BME280;5763;42.714;23.244;2023-06-19T12:36:13;94627.47;;;28.22;41.67
11415;BME280;5763;42.714;23.244;2023-06-19T12:38:40;94620.25;;;28.36;43.25
11415;BME280;5763;42.714;23.244;2023-06-19T12:41:06;94627.91;;;28.58;41.64
11415;BME280;5763;42.714;23.244;2023-06-19T12:43:35;94632.34;;;28.76;39.93
11415;BME280;5763;42.714;23.244;2023-06-19T12:46:01;94623.06;;;28.44;35.99
11415;BME280;5763;42.714;23.244;2023-06-19T12:48:28;94634.56;;;28.38;36.68
11415;BME280;5763;42.714;23.244;2023-06-19T12:50:55;94631.47;;;28.59;36.73
11415;BME280;5763;42.714;23.244;2023-06-19T12:53:22;94620.88;;;28.82;37.63
11415;BME280;5763;42.714;23.244;2023-06-19T12:55:52;94625.34;;;28.85;39.70
11415;BME280;5763;42.714;23.244;2023-06-19T12:58:19;94633.31;;;28.64;38.38
11415;BME280;5763;42.714;23.244;2023-06-19T13:00:47;94623.25;;;28.53;35.21
11415;BME280;5763;42.714;23.244;2023-06-19T13:03:14;94630.09;;;28.75;37.18